Time;durP1;ratioP1;P1;durP2;ratioP2;P2;SDS_P1;SDS_P2;PMS_P1;PMS_P2;Temp;Humidity;BMP_temperature;BMP_pressure;BME280_temperature;BME280_humidity;BME280_pressure;Samples;Min_cycle;Max_cycle;Signal;HPM_P1;HPM_P2
2023/08/05 00:01:17;;;;;;;13.05;8.40;;;;;;;;;;4952190;28;20031;-74
2023/08/05 00:03:43;;;;;;;11.57;8.85;;;;;;;;;;4951794;28;20636;-73
2023/08/05 00:06:10;;;;;;;9.55;7.80;;;;;;;;;;4952119;28;20047;-73
2023/08/05 00:08:36;;;;;;;15.63;8.73;;;;;;;;;;4952091;28;20057;-73
2023/08/05 00:11:02;;;;;;;10.52;8.25;;;;;;;;;;4951977;28;20125;-73
2023/08/05 00:13:34;;;;;;;14.57;8.48;;;;;;;;;;4951959;29;20082;-73
2023/08/05 00:16:01;;;;;;;10.98;8.68;;;;;;;;;;4951777;28;20138;-73
2023/08/05 00:18:27;;;;;;;13.15;8.35;;;;;;;;;;4952098;28;20031;-74
2023/08/05 00:20:53;;;;;;;14.98;8.10;;;;;;;;;;4952007;28;20629;-74
2023/08/05 00:23:19;;;;;;;15.60;8.65;;;;;;;;;;4952227;28;20062;-73
2023/08/05 00:25:46;;;;;;;12.05;8.38;;;;;;;;;;4951758;29;20047;-72
2023/08/05 00:28:12;;;;;;;15.73;8.15;;;;;;;;;;4952167;28;20027;-72
2023/08/05 00:30:39;;;;;;;13.07;7.80;;;;;;;;;;4950666;29;20129;-72
2023/08/05 00:33:06;;;;;;;12.30;8.25;;;;;;;;;;4951901;28;20035;-73
2023/08/05 00:35:33;;;;;;;10.15;8.23;;;;;;;;;;4951968;28;20054;-73
2023/08/05 00:37:59;;;;;;;13.43;8.27;;;;;;;;;;4951730;28;20502;-73
2023/08/05 00:40:25;;;;;;;16.67;8.38;;;;;;;;;;4952109;28;20122;-71
2023/08/05 00:42:51;;;;;;;15.68;8.38;;;;;;;;;;4951557;28;20027;-74
2023/08/05 00:45:17;;;;;;;15.18;8.27;;;;;;;;;;4952005;28;20035;-72
2023/08/05 00:47:44;;;;;;;17.67;8.80;;;;;;;;;;4951457;28;20237;-71
2023/08/05 00:50:10;;;;;;;12.77;8.50;;;;;;;;;;4950583;29;20457;-72
2023/08/05 00:52:36;;;;;;;22.15;9.88;;;;;;;;;;4950488;29;20082;-73
2023/08/05 00:55:02;;;;;;;10.15;8.60;;;;;;;;;;4950149;29;20074;-73
2023/08/05 00:57:30;;;;;;;16.38;8.48;;;;;;;;;;4951520;28;20070;-73
2023/08/05 00:59:56;;;;;;;11.82;8.77;;;;;;;;;;4950190;29;20090;-74
2023/08/05 01:02:23;;;;;;;21.55;8.90;;;;;;;;;;4952422;28;20513;-73
2023/08/05 01:04:50;;;;;;;10.05;9.15;;;;;;;;;;4954952;29;20046;-72
2023/08/05 01:07:16;;;;;;;13.55;9.35;;;;;;;;;;4955363;28;20163;-72
2023/08/05 01:09:41;;;;;;;17.02;8.98;;;;;;;;;;4954900;28;20072;-73
2023/08/05 01:12:08;;;;;;;13.60;8.35;;;;;;;;;;4954137;29;20039;-73
2023/08/05 01:14:35;;;;;;;16.63;10.15;;;;;;;;;;4954126;29;20039;-74
2023/08/05 01:17:02;;;;;;;16.52;9.10;;;;;;;;;;4953999;29;20544;-73
2023/08/05 01:19:28;;;;;;;11.10;9.05;;;;;;;;;;4964031;29;20039;-73
2023/08/05 01:21:54;;;;;;;13.20;8.52;;;;;;;;;;4960272;29;20528;-72
2023/08/05 01:24:32;;;;;;;19.58;9.30;;;;;;;;;;4959517;28;20047;-74
2023/08/05 01:26:57;;;;;;;10.05;8.50;;;;;;;;;;4953343;29;20057;-72
2023/08/05 01:29:23;;;;;;;12.32;9.70;;;;;;;;;;4969460;28;20494;-73
2023/08/05 01:31:50;;;;;;;9.80;8.80;;;;;;;;;;4954514;28;20036;-73
2023/08/05 01:34:16;;;;;;;12.68;9.57;;;;;;;;;;4954523;28;20046;-73
2023/08/05 01:36:42;;;;;;;10.05;8.52;;;;;;;;;;4956256;29;20110;-72
2023/08/05 01:39:08;;;;;;;13.38;9.15;;;;;;;;;;4955769;29;20046;-73
2023/08/05 01:41:34;;;;;;;13.10;9.90;;;;;;;;;;4954409;29;20034;-73
2023/08/05 01:44:00;;;;;;;13.63;9.20;;;;;;;;;;4956214;29;20039;-74
2023/08/05 01:46:26;;;;;;;11.57;8.95;;;;;;;;;;4956797;28;20165;-73
2023/08/05 01:48:52;;;;;;;15.05;9.20;;;;;;;;;;4954423;28;20532;-73
2023/08/05 01:51:17;;;;;;;10.68;8.45;;;;;;;;;;4954443;28;20062;-73
2023/08/05 01:53:44;;;;;;;12.85;9.45;;;;;;;;;;4954081;28;20049;-73
2023/08/05 01:56:10;;;;;;;12.88;9.18;;;;;;;;;;4954230;28;20181;-73
2023/08/05 01:58:36;;;;;;;10.80;8.85;;;;;;;;;;4954157;28;20339;-74
2023/08/05 02:01:03;;;;;;;12.10;9.20;;;;;;;;;;4952799;29;20043;-73
2023/08/05 02:03:29;;;;;;;10.15;9.15;;;;;;;;;;4954045;28;20035;-74
2023/08/05 02:05:56;;;;;;;12.88;9.32;;;;;;;;;;4952673;29;20035;-73
2023/08/05 02:08:22;;;;;;;17.05;8.88;;;;;;;;;;4936790;29;20035;-74
2023/08/05 02:10:48;;;;;;;11.43;8.90;;;;;;;;;;4953669;28;20114;-73
2023/08/05 02:13:15;;;;;;;16.23;8.70;;;;;;;;;;4952589;28;20039;-73
2023/08/05 02:15:40;;;;;;;12.43;9.07;;;;;;;;;;4952598;28;20052;-74
2023/08/05 02:18:08;;;;;;;11.95;8.23;;;;;;;;;;4953683;28;20042;-75
2023/08/05 02:20:37;;;;;;;11.60;8.80;;;;;;;;;;4954118;28;20047;-72
2023/08/05 02:23:03;;;;;;;11.75;8.32;;;;;;;;;;4953688;29;20141;-73
2023/08/05 02:25:29;;;;;;;13.35;8.27;;;;;;;;;;4953803;28;20042;-73
2023/08/05 02:27:55;;;;;;;14.63;8.38;;;;;;;;;;4953263;28;20027;-74
2023/08/05 02:30:21;;;;;;;9.75;8.43;;;;;;;;;;4952622;29;20038;-72
2023/08/05 02:32:47;;;;;;;9.18;8.27;;;;;;;;;;4952007;29;20043;-73
2023/08/05 02:35:13;;;;;;;13.02;8.95;;;;;;;;;;4953518;28;20047;-73
2023/08/05 02:37:39;;;;;;;9.85;8.50;;;;;;;;;;4953412;28;20105;-74
2023/08/05 02:40:05;;;;;;;9.77;8.60;;;;;;;;;;4951978;29;20736;-72
2023/08/05 02:42:31;;;;;;;16.02;8.05;;;;;;;;;;4953501;29;20458;-73
2023/08/05 02:44:57;;;;;;;10.18;8.35;;;;;;;;;;4953977;28;20041;-73
2023/08/05 02:47:24;;;;;;;9.18;8.15;;;;;;;;;;4954642;29;20071;-73
2023/08/05 02:49:50;;;;;;;12.60;8.18;;;;;;;;;;4937203;29;20062;-73
2023/08/05 02:52:17;;;;;;;12.82;9.07;;;;;;;;;;4952229;29;20125;-73
2023/08/05 02:54:43;;;;;;;17.23;9.13;;;;;;;;;;4951812;29;20126;-75
2023/08/05 02:57:09;;;;;;;9.80;8.50;;;;;;;;;;4952827;29;20097;-74
2023/08/05 02:59:35;;;;;;;9.77;8.35;;;;;;;;;;4951753;29;20050;-74
2023/08/05 03:02:01;;;;;;;10.63;7.78;;;;;;;;;;4952804;28;20129;-73
2023/08/05 03:04:28;;;;;;;10.60;7.80;;;;;;;;;;4952999;28;20031;-74
2023/08/05 03:06:54;;;;;;;9.15;8.18;;;;;;;;;;4951533;29;20553;-74
2023/08/05 03:09:20;;;;;;;9.18;8.27;;;;;;;;;;4952807;28;20051;-74
2023/08/05 03:11:45;;;;;;;12.35;8.35;;;;;;;;;;4952956;28;20417;-75
2023/08/05 03:14:11;;;;;;;12.05;8.38;;;;;;;;;;4952513;28;20042;-74
2023/08/05 03:16:38;;;;;;;12.55;8.15;;;;;;;;;;4951699;29;20054;-74
2023/08/05 03:19:12;;;;;;;9.48;8.15;;;;;;;;;;4951324;29;20160;-75
2023/08/05 03:21:38;;;;;;;19.33;8.88;;;;;;;;;;4952787;29;20050;-75
2023/08/05 03:24:04;;;;;;;14.93;8.32;;;;;;;;;;4951128;29;20542;-74
2023/08/05 03:26:34;;;;;;;9.93;8.45;;;;;;;;;;4951181;28;20434;-74
2023/08/05 03:29:03;;;;;;;13.90;7.88;;;;;;;;;;4951182;29;20035;-72
2023/08/05 03:31:30;;;;;;;9.95;8.43;;;;;;;;;;4951424;29;20039;-73
2023/08/05 03:33:57;;;;;;;12.05;8.05;;;;;;;;;;4951034;29;20058;-75
2023/08/05 03:36:24;;;;;;;13.55;8.32;;;;;;;;;;4951231;29;20510;-75
2023/08/05 03:38:51;;;;;;;9.90;8.10;;;;;;;;;;4950998;29;20039;-75
2023/08/05 03:41:17;;;;;;;9.45;7.85;;;;;;;;;;4951442;29;20039;-76
2023/08/05 03:43:43;;;;;;;14.10;8.45;;;;;;;;;;4952433;28;20122;-75
2023/08/05 03:46:09;;;;;;;10.75;8.32;;;;;;;;;;4952394;28;20506;-74
2023/08/05 03:48:37;;;;;;;8.50;7.70;;;;;;;;;;4952380;28;20062;-76
2023/08/05 03:51:03;;;;;;;10.52;7.55;;;;;;;;;;4950854;29;20046;-75
2023/08/05 03:53:29;;;;;;;14.25;8.38;;;;;;;;;;4952298;28;20039;-75
2023/08/05 03:55:55;;;;;;;10.75;8.18;;;;;;;;;;4950739;29;20072;-75
2023/08/05 03:58:23;;;;;;;12.00;8.10;;;;;;;;;;4966885;28;20063;-74
2023/08/05 04:00:51;;;;;;;10.10;8.15;;;;;;;;;;4967009;28;20110;-75
2023/08/05 04:03:17;;;;;;;10.60;8.18;;;;;;;;;;4952178;28;20059;-76
2023/08/05 04:05:43;;;;;;;13.48;8.65;;;;;;;;;;4951059;29;20039;-75
2023/08/05 04:08:11;;;;;;;12.32;8.02;;;;;;;;;;4951860;29;20047;-75
2023/08/05 04:10:40;;;;;;;16.38;8.73;;;;;;;;;;4951044;29;20414;-75
2023/08/05 04:13:11;;;;;;;14.95;8.50;;;;;;;;;;4951802;28;20046;-75
2023/08/05 04:15:38;;;;;;;9.13;7.65;;;;;;;;;;4951232;29;20306;-75
2023/08/05 04:18:05;;;;;;;16.70;8.73;;;;;;;;;;4951014;29;20039;-74
2023/08/05 04:20:33;;;;;;;9.50;7.88;;;;;;;;;;4952321;29;20563;-74
2023/08/05 04:22:59;;;;;;;12.40;7.90;;;;;;;;;;4952552;28;20034;-76
2023/08/05 04:25:29;;;;;;;10.85;7.78;;;;;;;;;;4952782;29;20129;-75
2023/08/05 04:27:56;;;;;;;11.98;8.18;;;;;;;;;;4958387;28;20517;-76
2023/08/05 04:30:22;;;;;;;10.05;7.82;;;;;;;;;;4959818;29;20537;-75
2023/08/05 04:32:48;;;;;;;15.23;7.60;;;;;;;;;;4959434;28;20131;-75
2023/08/05 04:35:14;;;;;;;16.20;7.07;;;;;;;;;;4951896;29;20130;-73
2023/08/05 04:37:40;;;;;;;15.88;7.38;;;;;;;;;;4952478;28;20516;-73
2023/08/05 04:40:06;;;;;;;11.55;7.18;;;;;;;;;;4954060;29;20088;-75
2023/08/05 04:42:32;;;;;;;13.75;7.07;;;;;;;;;;4956054;29;20039;-75
2023/08/05 04:45:00;;;;;;;9.00;6.40;;;;;;;;;;4955399;28;20039;-76
2023/08/05 04:47:26;;;;;;;11.35;6.88;;;;;;;;;;4955678;28;20422;-77
2023/08/05 04:49:52;;;;;;;7.82;6.40;;;;;;;;;;4955424;28;20090;-75
2023/08/05 04:52:18;;;;;;;10.18;6.25;;;;;;;;;;4955299;29;20089;-75
2023/08/05 04:54:44;;;;;;;21.75;6.45;;;;;;;;;;4955321;29;20054;-73
2023/08/05 04:57:11;;;;;;;13.75;5.75;;;;;;;;;;4954766;28;20070;-76
2023/08/05 04:59:37;;;;;;;13.95;6.30;;;;;;;;;;4955172;28;20031;-76
2023/08/05 05:02:04;;;;;;;8.05;5.55;;;;;;;;;;4954957;28;20047;-75
2023/08/05 05:04:30;;;;;;;9.57;6.13;;;;;;;;;;4954018;29;20500;-76
2023/08/05 05:06:56;;;;;;;12.60;5.82;;;;;;;;;;4954991;28;20063;-74
2023/08/05 05:09:22;;;;;;;7.53;5.25;;;;;;;;;;4955036;28;20028;-76
2023/08/05 05:11:48;;;;;;;10.20;5.43;;;;;;;;;;4955133;28;20043;-75
2023/08/05 05:14:14;;;;;;;16.45;5.72;;;;;;;;;;4954750;29;20039;-77
2023/08/05 05:16:40;;;;;;;9.35;5.18;;;;;;;;;;4954982;28;20615;-75
2023/08/05 05:19:06;;;;;;;10.05;4.88;;;;;;;;;;4954443;28;20112;-76
2023/08/05 05:21:33;;;;;;;7.35;4.85;;;;;;;;;;4954957;28;20087;-77
2023/08/05 05:23:59;;;;;;;11.18;5.05;;;;;;;;;;4954305;28;20042;-75
2023/08/05 05:26:43;;;;;;;9.07;4.55;;;;;;;;;;4955171;29;20046;-76
2023/08/05 05:29:09;;;;;;;8.32;4.40;;;;;;;;;;4954350;29;20471;-76
2023/08/05 05:31:35;;;;;;;10.75;4.38;;;;;;;;;;4954612;29;20042;-74
2023/08/05 05:34:01;;;;;;;13.25;4.18;;;;;;;;;;4954318;28;20031;-76
2023/08/05 05:36:27;;;;;;;10.23;4.32;;;;;;;;;;4954412;28;20498;-75
2023/08/05 05:38:54;;;;;;;10.05;4.28;;;;;;;;;;4954630;28;20027;-75
2023/08/05 05:41:20;;;;;;;7.68;4.88;;;;;;;;;;4953582;29;20473;-76
2023/08/05 05:43:45;;;;;;;6.30;3.63;;;;;;;;;;4955304;28;20167;-74
2023/08/05 05:46:13;;;;;;;7.63;3.92;;;;;;;;;;4954566;28;20039;-76
2023/08/05 05:48:39;;;;;;;5.60;3.75;;;;;;;;;;4955346;28;20039;-75
2023/08/05 05:51:05;;;;;;;6.95;3.80;;;;;;;;;;4953239;29;20042;-77
2023/08/05 05:53:31;;;;;;;7.28;3.65;;;;;;;;;;4954069;29;20039;-77
2023/08/05 05:55:57;;;;;;;10.57;3.83;;;;;;;;;;4954072;28;20127;-77
2023/08/05 05:58:23;;;;;;;9.80;3.78;;;;;;;;;;4953658;28;20063;-75
2023/08/05 06:00:56;;;;;;;11.70;4.00;;;;;;;;;;4954157;28;20031;-75
2023/08/05 06:03:22;;;;;;;7.15;3.67;;;;;;;;;;4953738;28;20585;-75
2023/08/05 06:05:50;;;;;;;4.95;3.42;;;;;;;;;;4954133;28;20502;-77
2023/08/05 06:08:16;;;;;;;8.88;3.40;;;;;;;;;;4952710;29;20553;-76
2023/08/05 06:10:43;;;;;;;3.75;2.80;;;;;;;;;;4953903;28;20047;-74
2023/08/05 06:13:09;;;;;;;5.57;3.38;;;;;;;;;;4953816;28;20049;-75
2023/08/05 06:15:38;;;;;;;6.13;3.55;;;;;;;;;;4953874;29;20596;-76
2023/08/05 06:18:04;;;;;;;5.57;3.20;;;;;;;;;;4953632;29;20568;-76
2023/08/05 06:20:30;;;;;;;9.95;3.35;;;;;;;;;;4953762;28;20118;-76
2023/08/05 06:22:56;;;;;;;4.20;3.17;;;;;;;;;;4952543;29;20560;-75
2023/08/05 06:25:22;;;;;;;6.70;3.45;;;;;;;;;;4953353;29;20057;-75
2023/08/05 06:27:48;;;;;;;9.60;3.28;;;;;;;;;;4953753;28;20565;-75
2023/08/05 06:30:15;;;;;;;6.30;2.95;;;;;;;;;;4952129;29;20046;-75
2023/08/05 06:32:41;;;;;;;18.35;3.30;;;;;;;;;;4952476;29;20392;-76
2023/08/05 06:35:07;;;;;;;4.43;3.00;;;;;;;;;;4953122;28;20490;-76
2023/08/05 06:37:34;;;;;;;7.57;2.97;;;;;;;;;;4953342;28;20110;-76
2023/08/05 06:40:00;;;;;;;11.23;3.10;;;;;;;;;;4952173;29;20559;-74
2023/08/05 06:42:26;;;;;;;3.55;2.88;;;;;;;;;;4953661;28;20082;-77
2023/08/05 06:44:53;;;;;;;3.05;2.67;;;;;;;;;;4953559;28;20517;-75
2023/08/05 06:47:20;;;;;;;9.23;2.45;;;;;;;;;;4953134;28;20042;-76
2023/08/05 06:49:46;;;;;;;5.95;2.60;;;;;;;;;;4953234;28;20133;-76
2023/08/05 06:52:12;;;;;;;7.88;3.08;;;;;;;;;;4953060;28;20038;-76
2023/08/05 06:54:38;;;;;;;8.27;2.90;;;;;;;;;;4953269;28;20039;-76
2023/08/05 06:57:04;;;;;;;4.43;2.78;;;;;;;;;;4952704;28;20287;-74
2023/08/05 06:59:30;;;;;;;6.75;2.55;;;;;;;;;;4951672;28;20446;-75
2023/08/05 07:01:56;;;;;;;5.95;2.70;;;;;;;;;;4952746;29;20653;-75
2023/08/05 07:04:22;;;;;;;4.30;2.60;;;;;;;;;;4952754;29;20607;-76
2023/08/05 07:06:48;;;;;;;8.05;2.90;;;;;;;;;;4952837;29;20138;-75
2023/08/05 07:09:14;;;;;;;4.32;2.67;;;;;;;;;;4952660;29;20031;-74
2023/08/05 07:11:40;;;;;;;3.05;2.10;;;;;;;;;;4953115;28;20050;-75
2023/08/05 07:14:06;;;;;;;3.10;2.35;;;;;;;;;;4951242;29;20522;-75
2023/08/05 07:16:32;;;;;;;4.80;2.50;;;;;;;;;;4952914;28;20075;-74
2023/08/05 07:18:58;;;;;;;3.72;2.30;;;;;;;;;;4952802;28;20489;-75
2023/08/05 07:21:24;;;;;;;5.45;2.83;;;;;;;;;;4952591;28;20421;-76
2023/08/05 07:23:51;;;;;;;5.18;2.22;;;;;;;;;;4952786;28;20063;-77
2023/08/05 07:26:17;;;;;;;3.72;2.47;;;;;;;;;;4951345;29;20200;-75
2023/08/05 07:28:43;;;;;;;3.28;2.30;;;;;;;;;;4952868;28;20494;-74
2023/08/05 07:31:10;;;;;;;4.57;2.35;;;;;;;;;;4952984;28;20039;-74
2023/08/05 07:33:36;;;;;;;4.78;2.38;;;;;;;;;;4953607;28;20077;-75
2023/08/05 07:36:16;;;;;;;2.42;2.22;;;;;;;;;;4957548;28;20042;-77
2023/08/05 07:38:45;;;;;;;5.05;2.38;;;;;;;;;;4956646;29;20043;-75
2023/08/05 07:41:12;;;;;;;4.32;1.80;;;;;;;;;;4954514;28;20034;-74
2023/08/05 07:43:38;;;;;;;8.50;2.55;;;;;;;;;;4952503;28;20043;-75
2023/08/05 07:46:05;;;;;;;2.75;2.10;;;;;;;;;;4951072;29;20046;-76
2023/08/05 07:48:35;;;;;;;6.53;2.20;;;;;;;;;;4952410;29;20054;-74
2023/08/05 07:51:02;;;;;;;3.05;2.10;;;;;;;;;;4952284;28;20035;-76
2023/08/05 07:53:30;;;;;;;3.67;2.10;;;;;;;;;;4952151;28;20506;-74
2023/08/05 07:55:58;;;;;;;3.75;2.10;;;;;;;;;;4952046;28;20039;-77
2023/08/05 07:58:25;;;;;;;2.47;2.30;;;;;;;;;;4952006;28;20418;-76
2023/08/05 08:00:55;;;;;;;3.50;2.10;;;;;;;;;;4952249;29;20557;-76
2023/08/05 08:03:23;;;;;;;3.60;2.30;;;;;;;;;;4952093;29;20422;-76
2023/08/05 08:05:49;;;;;;;4.15;2.25;;;;;;;;;;4952239;29;20066;-76
2023/08/05 08:08:16;;;;;;;6.60;2.75;;;;;;;;;;4952050;29;20074;-75
2023/08/05 08:10:42;;;;;;;4.57;2.30;;;;;;;;;;4952337;29;20046;-75
2023/08/05 08:13:08;;;;;;;5.05;2.35;;;;;;;;;;4953011;28;20094;-76
2023/08/05 08:15:34;;;;;;;4.82;2.38;;;;;;;;;;4956007;28;20043;-75
2023/08/05 08:18:00;;;;;;;2.58;2.28;;;;;;;;;;4956166;28;20047;-75
2023/08/05 08:20:26;;;;;;;3.78;2.30;;;;;;;;;;4954607;29;20484;-75
2023/08/05 08:22:52;;;;;;;2.20;2.10;;;;;;;;;;4956036;28;20043;-75
2023/08/05 08:25:19;;;;;;;4.80;2.55;;;;;;;;;;4955734;29;20031;-75
2023/08/05 08:27:45;;;;;;;2.95;2.47;;;;;;;;;;4956417;28;20572;-75
2023/08/05 08:30:12;;;;;;;3.30;2.40;;;;;;;;;;4957421;29;20055;-77
2023/08/05 08:32:38;;;;;;;4.15;2.25;;;;;;;;;;4958574;29;20050;-76
2023/08/05 08:35:05;;;;;;;3.03;2.08;;;;;;;;;;4957396;28;20039;-74
2023/08/05 08:37:31;;;;;;;3.38;1.90;;;;;;;;;;4956449;29;20043;-76
2023/08/05 08:39:57;;;;;;;2.50;2.30;;;;;;;;;;4957952;28;20126;-75
2023/08/05 08:42:23;;;;;;;3.50;2.30;;;;;;;;;;4956025;29;20039;-75
2023/08/05 08:44:50;;;;;;;2.78;2.20;;;;;;;;;;4940075;29;20169;-76
2023/08/05 08:47:16;;;;;;;2.50;2.28;;;;;;;;;;4956889;29;20525;-76
2023/08/05 08:49:42;;;;;;;2.45;2.25;;;;;;;;;;4956788;28;20035;-75
2023/08/05 08:52:08;;;;;;;4.20;2.30;;;;;;;;;;4954976;29;20399;-77
2023/08/05 08:54:35;;;;;;;2.47;2.20;;;;;;;;;;4954582;29;20050;-75
2023/08/05 08:57:01;;;;;;;3.60;2.20;;;;;;;;;;4954438;29;20130;-75
2023/08/05 08:59:27;;;;;;;8.27;2.47;;;;;;;;;;4953746;29;20142;-76
2023/08/05 09:01:53;;;;;;;7.43;2.60;;;;;;;;;;4954498;29;20034;-75
2023/08/05 09:04:19;;;;;;;2.58;2.38;;;;;;;;;;4955309;29;20031;-75
2023/08/05 09:06:45;;;;;;;2.42;2.22;;;;;;;;;;4955251;29;20184;-74
2023/08/05 09:09:11;;;;;;;2.00;1.90;;;;;;;;;;4954045;29;20035;-75
2023/08/05 09:11:37;;;;;;;2.17;2.08;;;;;;;;;;4954262;29;20138;-75
2023/08/05 09:14:04;;;;;;;2.90;2.00;;;;;;;;;;4953913;29;20031;-75
2023/08/05 09:16:30;;;;;;;4.07;2.20;;;;;;;;;;4955378;29;20051;-76
2023/08/05 09:18:57;;;;;;;4.38;2.08;;;;;;;;;;4955528;28;20039;-75
2023/08/05 09:21:23;;;;;;;2.10;2.00;;;;;;;;;;4954875;28;20134;-75
2023/08/05 09:23:49;;;;;;;4.57;2.10;;;;;;;;;;4954551;28;20038;-75
2023/08/05 09:26:25;;;;;;;4.18;2.42;;;;;;;;;;4953196;29;20030;-74
2023/08/05 09:28:51;;;;;;;3.58;2.20;;;;;;;;;;4953705;29;20089;-75
2023/08/05 09:31:17;;;;;;;2.28;2.10;;;;;;;;;;4954400;28;20035;-74
2023/08/05 09:33:43;;;;;;;2.33;2.13;;;;;;;;;;4953688;28;20062;-77
2023/08/05 09:36:10;;;;;;;2.20;2.10;;;;;;;;;;4954508;28;20486;-74
2023/08/05 09:38:40;;;;;;;2.35;2.10;;;;;;;;;;4953752;29;20130;-75
2023/08/05 09:41:07;;;;;;;2.42;2.22;;;;;;;;;;4969378;28;20031;-76
2023/08/05 09:43:45;;;;;;;3.03;1.92;;;;;;;;;;4954458;29;20099;-76
2023/08/05 09:46:12;;;;;;;3.42;2.05;;;;;;;;;;4954730;28;20422;-75
2023/08/05 09:48:40;;;;;;;5.05;2.30;;;;;;;;;;4956185;28;20039;-74
2023/08/05 09:51:06;;;;;;;4.20;2.20;;;;;;;;;;4955268;29;20114;-75
2023/08/05 09:53:33;;;;;;;3.30;2.70;;;;;;;;;;4955564;28;20467;-73
2023/08/05 09:56:00;;;;;;;2.60;2.40;;;;;;;;;;4956248;29;20046;-74
2023/08/05 09:58:26;;;;;;;4.97;2.13;;;;;;;;;;4955448;28;20063;-74
2023/08/05 10:00:52;;;;;;;4.00;2.42;;;;;;;;;;4955974;29;20554;-74
2023/08/05 10:03:18;;;;;;;2.50;2.30;;;;;;;;;;4953125;29;20162;-76
2023/08/05 10:05:44;;;;;;;2.58;2.15;;;;;;;;;;4955518;29;20053;-75
2023/08/05 10:08:11;;;;;;;4.65;2.40;;;;;;;;;;4956824;28;20102;-75
2023/08/05 10:10:38;;;;;;;5.60;2.33;;;;;;;;;;4954266;28;20070;-77
2023/08/05 10:13:08;;;;;;;3.40;1.85;;;;;;;;;;4953024;29;20126;-75
2023/08/05 10:15:39;;;;;;;4.60;2.78;;;;;;;;;;4952480;29;20103;-76
2023/08/05 10:18:09;;;;;;;3.03;2.00;;;;;;;;;;4920744;29;20081;-75
2023/08/05 10:20:35;;;;;;;3.00;2.47;;;;;;;;;;4953636;29;20032;-76
2023/08/05 10:23:02;;;;;;;3.70;2.30;;;;;;;;;;4953664;28;20062;-76
2023/08/05 10:25:42;;;;;;;4.88;2.10;;;;;;;;;;4953594;29;20391;-75
2023/08/05 10:28:11;;;;;;;;;;;;;;;;;;4954638;28;20039;-74
2023/08/05 10:30:41;;;;;;;2.47;2.27;;;;;;;;;;4954248;28;19960;-76
2023/08/05 10:33:07;;;;;;;3.17;2.35;;;;;;;;;;4954037;29;20070;-76
2023/08/05 10:35:39;;;;;;;3.25;2.40;;;;;;;;;;4952819;28;20466;-76
2023/08/05 10:38:09;;;;;;;7.32;2.22;;;;;;;;;;4953975;29;20075;-75
2023/08/05 10:40:48;;;;;;;3.30;2.10;;;;;;;;;;4954552;28;20090;-76
2023/08/05 10:43:32;;;;;;;2.17;2.00;;;;;;;;;;4955069;28;20035;-76
2023/08/05 10:46:00;;;;;;;5.78;2.28;;;;;;;;;;4957900;29;20177;-74
2023/08/05 10:48:38;;;;;;;2.85;2.33;;;;;;;;;;4962163;28;20047;-73
2023/08/05 10:51:11;;;;;;;2.60;2.40;;;;;;;;;;4959353;29;20050;-75
2023/08/05 10:53:37;;;;;;;2.78;2.17;;;;;;;;;;4953246;29;20047;-75
2023/08/05 10:56:07;;;;;;;3.75;2.70;;;;;;;;;;4952954;29;20053;-75
2023/08/05 10:58:34;;;;;;;3.85;2.90;;;;;;;;;;4951522;29;20051;-74
2023/08/05 11:01:01;;;;;;;4.43;2.70;;;;;;;;;;4952882;29;20554;-73
2023/08/05 11:03:40;;;;;;;2.38;2.17;;;;;;;;;;4952812;28;20454;-76
2023/08/05 11:06:07;;;;;;;2.20;2.08;;;;;;;;;;4935592;29;20531;-75
2023/08/05 11:08:33;;;;;;;2.40;2.20;;;;;;;;;;4952779;28;20039;-76
2023/08/05 11:11:02;;;;;;;4.57;2.40;;;;;;;;;;4952903;28;20047;-76
2023/08/05 11:13:32;;;;;;;4.63;2.22;;;;;;;;;;4952653;28;20035;-76
2023/08/05 11:16:07;;;;;;;2.50;2.38;;;;;;;;;;4951526;29;20093;-75
2023/08/05 11:18:33;;;;;;;3.53;2.50;;;;;;;;;;4952584;29;20413;-74
2023/08/05 11:21:00;;;;;;;2.65;2.40;;;;;;;;;;4952817;28;20046;-75
2023/08/05 11:23:26;;;;;;;2.65;2.40;;;;;;;;;;4952673;28;20104;-76
2023/08/05 11:25:52;;;;;;;8.77;2.47;;;;;;;;;;4952759;28;20494;-76
2023/08/05 11:28:19;;;;;;;2.92;2.60;;;;;;;;;;4951482;28;20045;-76
2023/08/05 11:30:45;;;;;;;5.47;2.63;;;;;;;;;;4935263;29;20040;-75
2023/08/05 11:33:11;;;;;;;4.28;2.60;;;;;;;;;;4953123;29;20043;-76
2023/08/05 11:35:45;;;;;;;2.35;2.20;;;;;;;;;;4951006;29;20053;-75
2023/08/05 11:38:11;;;;;;;2.65;2.20;;;;;;;;;;4951655;28;20044;-76
2023/08/05 11:40:41;;;;;;;3.00;2.53;;;;;;;;;;4952116;29;20039;-76
2023/08/05 11:43:08;;;;;;;4.00;2.40;;;;;;;;;;4951137;29;20525;-75
2023/08/05 11:45:37;;;;;;;4.35;2.30;;;;;;;;;;4952157;28;20041;-76
2023/08/05 11:48:03;;;;;;;6.38;3.00;;;;;;;;;;4952283;29;20121;-75
2023/08/05 11:50:33;;;;;;;4.80;2.90;;;;;;;;;;4952076;28;20506;-75
2023/08/05 11:53:05;;;;;;;3.53;2.80;;;;;;;;;;4967069;28;20157;-76
2023/08/05 11:55:39;;;;;;;5.10;2.90;;;;;;;;;;4951911;28;20129;-76
2023/08/05 11:58:05;;;;;;;5.53;2.97;;;;;;;;;;4952123;29;20122;-75
2023/08/05 12:00:32;;;;;;;3.80;2.90;;;;;;;;;;4952042;28;20028;-75
2023/08/05 12:02:58;;;;;;;2.88;2.60;;;;;;;;;;4952316;28;20093;-76
2023/08/05 12:05:24;;;;;;;2.40;2.20;;;;;;;;;;4934599;29;20035;-73
2023/08/05 12:07:50;;;;;;;8.82;2.63;;;;;;;;;;4951086;29;20102;-75
2023/08/05 12:10:16;;;;;;;2.60;2.13;;;;;;;;;;4952192;28;20121;-75
2023/08/05 12:12:46;;;;;;;3.65;2.35;;;;;;;;;;4950863;29;20058;-75
2023/08/05 12:15:12;;;;;;;;;;;;;;;;;;4951130;29;20040;-75
2023/08/05 12:17:46;;;;;;;3.28;2.42;;;;;;;;;;4951957;29;20385;-75
2023/08/05 12:20:14;;;;;;;4.75;2.90;;;;;;;;;;4952006;28;20173;-75
2023/08/05 12:22:40;;;;;;;4.65;2.55;;;;;;;;;;4950565;29;20039;-75
2023/08/05 12:25:06;;;;;;;3.67;2.92;;;;;;;;;;4951925;28;20090;-75
2023/08/05 12:27:32;;;;;;;3.03;2.60;;;;;;;;;;4951681;28;20041;-75
2023/08/05 12:29:58;;;;;;;3.53;2.60;;;;;;;;;;4952233;28;20089;-75
2023/08/05 12:32:24;;;;;;;3.30;2.72;;;;;;;;;;4951733;28;20469;-74
2023/08/05 12:34:50;;;;;;;4.10;3.58;;;;;;;;;;4952475;28;20032;-75
2023/08/05 12:37:16;;;;;;;4.85;2.65;;;;;;;;;;4952735;28;20403;-74
2023/08/05 12:39:42;;;;;;;4.72;2.85;;;;;;;;;;4952120;28;20032;-75
2023/08/05 12:42:09;;;;;;;3.70;2.30;;;;;;;;;;4952877;29;20525;-75
2023/08/05 12:44:35;;;;;;;3.95;2.92;;;;;;;;;;4952324;29;20041;-75
2023/08/05 12:47:01;;;;;;;3.40;3.10;;;;;;;;;;4951786;28;20043;-75
2023/08/05 12:49:27;;;;;;;3.15;2.90;;;;;;;;;;4951722;28;20039;-74
2023/08/05 12:51:53;;;;;;;7.38;2.50;;;;;;;;;;4950548;29;20039;-75
2023/08/05 12:54:18;;;;;;;4.72;2.80;;;;;;;;;;4951720;28;21624;-75
2023/08/05 12:56:45;;;;;;;2.58;2.38;;;;;;;;;;4951379;28;20514;-75
2023/08/05 12:59:11;;;;;;;3.33;3.03;;;;;;;;;;4953576;28;20118;-74
2023/08/05 13:01:38;;;;;;;3.20;2.70;;;;;;;;;;4955061;29;20045;-75
2023/08/05 13:04:04;;;;;;;2.33;2.20;;;;;;;;;;4955348;28;20108;-74
2023/08/05 13:06:30;;;;;;;3.28;2.50;;;;;;;;;;4955074;29;20418;-74
2023/08/05 13:08:56;;;;;;;8.07;2.60;;;;;;;;;;4938154;29;20074;-75
2023/08/05 13:11:22;;;;;;;4.40;2.40;;;;;;;;;;4954236;29;20062;-75
2023/08/05 13:13:49;;;;;;;2.40;2.30;;;;;;;;;;4955020;28;20039;-75
2023/08/05 13:16:16;;;;;;;5.00;2.60;;;;;;;;;;4954768;28;20039;-75
2023/08/05 13:18:43;;;;;;;5.80;2.70;;;;;;;;;;4954740;28;20102;-74
2023/08/05 13:21:09;;;;;;;3.60;2.55;;;;;;;;;;4953672;29;20046;-75
2023/08/05 13:23:36;;;;;;;4.53;2.30;;;;;;;;;;4953439;29;20525;-75
2023/08/05 13:26:02;;;;;;;7.63;2.60;;;;;;;;;;4956166;28;20081;-77
2023/08/05 13:28:28;;;;;;;3.97;2.78;;;;;;;;;;4955327;28;20126;-76
2023/08/05 13:31:03;;;;;;;5.57;2.83;;;;;;;;;;4954898;28;20516;-75
2023/08/05 13:33:29;;;;;;;3.72;2.50;;;;;;;;;;4954523;28;20122;-75
2023/08/05 13:35:55;;;;;;;2.90;2.60;;;;;;;;;;4954550;29;20039;-76
2023/08/05 13:38:21;;;;;;;2.70;2.58;;;;;;;;;;4954759;28;20529;-76
2023/08/05 13:40:50;;;;;;;5.07;2.92;;;;;;;;;;4953185;29;20027;-75
2023/08/05 13:43:16;;;;;;;3.00;2.65;;;;;;;;;;4954781;28;20097;-76
2023/08/05 13:45:49;;;;;;;3.03;2.67;;;;;;;;;;4954339;29;20514;-75
2023/08/05 13:48:15;;;;;;;6.88;3.00;;;;;;;;;;4953302;29;20047;-75
2023/08/05 13:50:41;;;;;;;4.80;2.80;;;;;;;;;;4954425;29;20043;-76
2023/08/05 13:53:10;;;;;;;2.58;2.42;;;;;;;;;;4953395;29;20130;-74
2023/08/05 13:55:36;;;;;;;4.93;2.75;;;;;;;;;;4954219;28;20138;-75
2023/08/05 13:58:02;;;;;;;5.82;2.60;;;;;;;;;;4954716;28;20082;-75
2023/08/05 14:00:28;;;;;;;3.00;2.78;;;;;;;;;;4953623;29;20066;-75
2023/08/05 14:02:54;;;;;;;2.88;2.67;;;;;;;;;;4956789;29;20097;-76
2023/08/05 14:05:20;;;;;;;4.05;2.70;;;;;;;;;;4956354;29;20450;-75
2023/08/05 14:07:47;;;;;;;4.63;2.70;;;;;;;;;;4964607;28;20425;-77
2023/08/05 14:10:13;;;;;;;8.35;2.83;;;;;;;;;;4965395;28;20322;-74
2023/08/05 14:12:39;;;;;;;3.42;2.90;;;;;;;;;;4960536;28;20046;-75
2023/08/05 14:15:06;;;;;;;3.25;2.95;;;;;;;;;;4953863;28;20035;-74
2023/08/05 14:17:32;;;;;;;2.88;2.63;;;;;;;;;;4953457;29;20422;-75
2023/08/05 14:19:58;;;;;;;6.07;3.10;;;;;;;;;;4953801;29;20043;-75
2023/08/05 14:22:24;;;;;;;3.17;2.88;;;;;;;;;;4953714;28;20640;-74
2023/08/05 14:24:51;;;;;;;4.85;2.80;;;;;;;;;;4953579;28;20399;-76
2023/08/05 14:27:17;;;;;;;4.45;2.92;;;;;;;;;;4952452;29;20039;-75
2023/08/05 14:29:43;;;;;;;3.20;2.90;;;;;;;;;;4953822;28;20519;-75
2023/08/05 14:32:10;;;;;;;2.80;2.53;;;;;;;;;;4953477;29;20577;-76
2023/08/05 14:34:36;;;;;;;5.38;3.00;;;;;;;;;;4953836;28;20127;-76
2023/08/05 14:37:02;;;;;;;5.95;3.05;;;;;;;;;;4936343;29;20564;-75